Time;durP1;ratioP1;P1;durP2;ratioP2;P2;SDS_P1;SDS_P2;PMS_P1;PMS_P2;Temp;Humidity;BMP_temperature;BMP_pressure;BME280_temperature;BME280_humidity;BME280_pressure;Samples;Min_cycle;Max_cycle;Signal;HPM_P1;HPM_P2
2021/04/18 00:02:04;;;;;;;17.33;7.60;;;;;;;7.10;65.17;100912.81;4998112;28;20061;-70
2021/04/18 00:04:31;;;;;;;12.77;5.55;;;;;;;7.06;65.68;100912.91;4998239;28;20058;-72
2021/04/18 00:06:57;;;;;;;12.40;5.53;;;;;;;7.06;64.84;100909.38;5017631;28;20061;-73
2021/04/18 00:09:24;;;;;;;11.20;5.15;;;;;;;7.00;65.32;100902.50;5018022;28;20053;-71
2021/04/18 00:11:54;;;;;;;15.45;5.22;;;;;;;6.98;65.77;100919.41;5017479;28;20427;-71
2021/04/18 00:14:31;;;;;;;13.55;5.03;;;;;;;7.00;65.78;100913.13;5017720;28;20050;-71
2021/04/18 00:16:57;;;;;;;10.88;4.72;;;;;;;7.01;66.26;100913.97;5016993;28;20359;-71
2021/04/18 00:19:25;;;;;;;14.25;5.20;;;;;;;6.92;66.70;100904.56;5017425;28;20061;-71
2021/04/18 00:21:53;;;;;;;14.02;5.43;;;;;;;6.82;67.00;100909.31;5016303;28;20423;-72
2021/04/18 00:24:19;;;;;;;10.77;5.00;;;;;;;6.80;67.12;100913.78;5016366;28;20062;-71
2021/04/18 00:26:45;;;;;;;11.65;5.38;;;;;;;6.88;67.24;100924.16;5016941;28;20355;-71
2021/04/18 00:29:11;;;;;;;12.93;5.25;;;;;;;6.86;67.29;100912.72;5017242;28;20057;-71
2021/04/18 00:31:38;;;;;;;9.25;5.25;;;;;;;6.70;67.71;100897.31;5015923;28;20050;-71
2021/04/18 00:34:04;;;;;;;13.88;5.00;;;;;;;6.85;67.59;100913.63;5016022;28;20049;-71
2021/04/18 00:36:31;;;;;;;14.57;5.38;;;;;;;6.79;67.43;100912.06;5017230;28;20084;-71
2021/04/18 00:38:57;;;;;;;12.00;5.32;;;;;;;6.81;67.46;100914.66;5017384;28;20398;-71
2021/04/18 00:41:24;;;;;;;16.83;6.13;;;;;;;6.79;67.32;100909.41;5017116;28;20042;-71
2021/04/18 00:43:51;;;;;;;12.13;5.13;;;;;;;6.75;67.40;100911.28;5016751;28;20435;-71
2021/04/18 00:46:17;;;;;;;9.63;5.47;;;;;;;6.64;67.85;100906.34;5017081;28;20049;-71
2021/04/18 00:48:44;;;;;;;9.80;4.97;;;;;;;6.62;67.91;100904.66;5015655;28;20167;-71
2021/04/18 00:51:11;;;;;;;13.98;5.35;;;;;;;6.60;68.39;100903.84;5016580;28;20046;-71
2021/04/18 00:53:38;;;;;;;11.45;5.47;;;;;;;6.61;68.05;100902.91;5016552;28;20058;-71
2021/04/18 00:56:06;;;;;;;16.50;5.68;;;;;;;6.58;68.07;100895.91;5016677;28;20141;-71
2021/04/18 00:58:34;;;;;;;19.15;5.80;;;;;;;6.54;68.30;100886.31;5016760;28;20046;-71
2021/04/18 01:01:01;;;;;;;10.18;5.50;;;;;;;6.57;68.11;100898.63;5016111;28;20042;-71
2021/04/18 01:03:29;;;;;;;11.85;5.20;;;;;;;6.55;68.25;100901.34;5016701;28;20053;-71
2021/04/18 01:05:55;;;;;;;13.07;5.32;;;;;;;6.52;68.26;100896.13;5012098;28;20117;-71
2021/04/18 01:08:22;;;;;;;19.48;5.63;;;;;;;6.45;68.73;100903.41;4996593;28;20424;-71
2021/04/18 01:10:48;;;;;;;10.40;5.45;;;;;;;6.43;68.22;100893.78;4996414;28;20046;-71
2021/04/18 01:13:15;;;;;;;10.88;5.43;;;;;;;6.47;68.44;100900.69;4997056;28;20498;-71
2021/04/18 01:15:42;;;;;;;13.48;5.25;;;;;;;6.46;68.52;100897.19;4997161;28;20113;-71
2021/04/18 01:18:08;;;;;;;12.13;5.60;;;;;;;6.36;68.46;100887.78;4997010;28;20058;-71
2021/04/18 01:20:34;;;;;;;10.10;5.07;;;;;;;6.35;68.35;100892.22;4996649;28;20076;-71
2021/04/18 01:23:00;;;;;;;13.15;5.40;;;;;;;6.36;68.69;100891.31;4995673;28;20054;-71
2021/04/18 01:25:27;;;;;;;9.02;4.88;;;;;;;6.40;68.40;100892.09;4995785;28;20081;-71
2021/04/18 01:27:55;;;;;;;12.07;5.63;;;;;;;6.11;68.83;100857.63;4997331;28;20093;-71
2021/04/18 01:30:24;;;;;;;12.30;4.95;;;;;;;6.36;68.57;100893.97;4996761;28;20093;-71
2021/04/18 01:32:54;;;;;;;11.90;5.53;;;;;;;6.34;68.29;100884.31;5011961;28;20139;-71
2021/04/18 01:35:27;;;;;;;8.93;4.65;;;;;;;6.22;68.44;100867.88;4996777;28;20057;-72
2021/04/18 01:37:54;;;;;;;11.65;5.32;;;;;;;6.24;68.39;100881.09;5011769;28;20061;-70
2021/04/18 01:40:24;;;;;;;14.93;5.30;;;;;;;6.30;68.55;100886.19;4996771;28;20050;-71
2021/04/18 01:42:51;;;;;;;10.40;5.50;;;;;;;6.20;69.35;100879.44;4996795;28;20057;-72
2021/04/18 01:45:19;;;;;;;9.10;5.30;;;;;;;6.01;69.76;100879.13;4995815;28;20089;-71
2021/04/18 01:47:46;;;;;;;12.00;5.93;;;;;;;6.05;69.58;100886.09;4996228;28;20389;-71
2021/04/18 01:50:17;;;;;;;12.93;5.53;;;;;;;5.94;69.92;100886.41;4996235;28;20090;-70
2021/04/18 01:52:44;;;;;;;11.25;5.20;;;;;;;5.79;70.40;100867.41;4996105;28;20054;-72
2021/04/18 01:55:11;;;;;;;10.57;4.97;;;;;;;5.78;70.69;100873.59;4995154;28;20058;-70
2021/04/18 01:57:37;;;;;;;14.40;5.57;;;;;;;5.66;71.20;100881.91;4995817;28;20141;-72
2021/04/18 02:00:07;;;;;;;12.80;5.68;;;;;;;5.67;71.23;100878.34;4996017;28;20058;-71
2021/04/18 02:02:33;;;;;;;12.32;4.65;;;;;;;5.70;70.89;100867.66;4995556;28;20057;-71
2021/04/18 02:05:00;;;;;;;11.90;5.45;;;;;;;5.55;71.38;100861.00;4999976;28;20050;-71
2021/04/18 02:07:27;;;;;;;14.90;5.35;;;;;;;5.49;71.79;100871.81;5015427;28;20137;-70
2021/04/18 02:10:03;;;;;;;14.98;5.25;;;;;;;5.52;71.34;100871.69;4998215;28;20057;-73
2021/04/18 02:12:29;;;;;;;13.63;5.95;;;;;;;5.48;71.86;100870.94;5015159;28;20046;-72
2021/04/18 02:14:55;;;;;;;14.68;5.60;;;;;;;5.62;71.07;100867.00;5015021;28;20083;-72
2021/04/18 02:17:21;;;;;;;12.80;5.07;;;;;;;5.38;71.92;100861.50;5015041;28;20045;-71
2021/04/18 02:19:48;;;;;;;10.52;5.07;;;;;;;5.37;72.07;100870.34;5013928;28;20123;-70
2021/04/18 02:22:14;;;;;;;12.85;5.25;;;;;;;5.36;72.29;100869.50;5015248;28;20050;-70
2021/04/18 02:24:40;;;;;;;8.73;5.25;;;;;;;5.29;72.68;100865.28;5014954;28;20328;-71
2021/04/18 02:27:07;;;;;;;15.25;5.45;;;;;;;5.28;72.50;100868.81;5015169;28;20057;-71
2021/04/18 02:29:33;;;;;;;14.45;5.60;;;;;;;5.28;72.28;100869.69;5014151;28;20104;-70
2021/04/18 02:31:59;;;;;;;10.07;5.35;;;;;;;5.20;72.93;100869.03;5015004;28;20096;-70
2021/04/18 02:34:26;;;;;;;11.57;5.13;;;;;;;5.13;73.49;100870.13;5015351;28;20064;-71
2021/04/18 02:36:52;;;;;;;12.25;5.68;;;;;;;5.13;73.07;100860.38;5014111;28;20046;-70
2021/04/18 02:39:18;;;;;;;15.23;5.93;;;;;;;5.02;73.83;100863.31;5015133;28;20376;-71
2021/04/18 02:41:45;;;;;;;12.55;5.82;;;;;;;5.10;73.67;100870.19;5018244;28;20080;-70
2021/04/18 02:44:11;;;;;;;12.20;5.20;;;;;;;4.97;73.90;100872.31;5018954;28;20049;-70
2021/04/18 02:46:37;;;;;;;10.77;5.75;;;;;;;4.93;74.32;100883.88;5019254;28;20347;-71
2021/04/18 02:49:04;;;;;;;13.05;5.97;;;;;;;4.92;74.61;100884.78;5019095;28;20072;-70
2021/04/18 02:51:31;;;;;;;15.00;5.75;;;;;;;4.90;74.51;100879.50;5018917;28;20045;-70
2021/04/18 02:53:59;;;;;;;10.38;5.47;;;;;;;4.87;74.77;100884.91;5018733;28;20057;-70
2021/04/18 02:56:27;;;;;;;10.63;5.82;;;;;;;4.75;75.11;100881.66;5017836;28;20060;-70
2021/04/18 02:58:55;;;;;;;13.98;7.28;;;;;;;4.75;75.32;100880.78;5018521;28;20049;-70
2021/04/18 03:01:21;;;;;;;14.82;6.15;;;;;;;4.75;75.43;100886.94;5018668;28;20042;-70
2021/04/18 03:03:48;;;;;;;9.63;5.40;;;;;;;4.79;75.47;100871.84;5018879;28;20058;-70
2021/04/18 03:06:15;;;;;;;11.73;5.55;;;;;;;4.80;75.02;100860.38;5018632;28;20050;-70
2021/04/18 03:08:43;;;;;;;13.90;5.97;;;;;;;4.89;74.86;100877.78;5033842;28;20050;-70
2021/04/18 03:11:10;;;;;;;10.52;5.13;;;;;;;4.81;75.44;100878.00;5018925;28;20050;-71
2021/04/18 03:13:36;;;;;;;12.15;5.57;;;;;;;4.80;75.70;100878.03;5018506;28;20391;-70
2021/04/18 03:16:04;;;;;;;15.30;5.90;;;;;;;4.82;75.44;100886.78;5018837;28;20398;-70
2021/04/18 03:18:30;;;;;;;10.32;5.65;;;;;;;4.85;74.98;100887.56;5018909;28;20065;-72
2021/04/18 03:20:57;;;;;;;16.45;6.18;;;;;;;4.82;75.47;100874.44;5018278;28;20506;-70
2021/04/18 03:23:23;;;;;;;12.32;5.85;;;;;;;5.05;74.86;100878.25;5018720;28;20053;-70
2021/04/18 03:25:49;;;;;;;15.52;5.13;;;;;;;5.03;74.67;100878.28;5018389;28;20156;-70
2021/04/18 03:28:16;;;;;;;10.13;5.20;;;;;;;4.98;74.51;100866.97;5018507;28;20332;-70
2021/04/18 03:30:42;;;;;;;11.93;5.35;;;;;;;4.93;74.90;100878.56;5018524;28;20108;-71
2021/04/18 03:33:09;;;;;;;14.43;5.97;;;;;;;4.96;75.18;100866.13;5018541;28;20085;-70
2021/04/18 03:35:35;;;;;;;11.60;5.20;;;;;;;4.91;75.49;100870.69;5017312;28;20054;-70
2021/04/18 03:38:03;;;;;;;10.05;5.63;;;;;;;5.04;75.19;100863.28;5017236;28;20058;-70
2021/04/18 03:40:30;;;;;;;11.90;5.32;;;;;;;5.11;73.76;100856.03;5018070;28;20060;-70
2021/04/18 03:42:56;;;;;;;9.40;5.75;;;;;;;4.93;74.33;100858.28;5018226;28;20058;-70
2021/04/18 03:45:22;;;;;;;14.93;5.78;;;;;;;5.02;74.52;100873.06;5017218;28;20376;-70
2021/04/18 03:47:49;;;;;;;19.20;6.90;;;;;;;5.02;74.22;100865.13;5017936;28;20444;-71
2021/04/18 03:50:17;;;;;;;13.75;5.18;;;;;;;5.00;74.24;100869.56;5018052;28;20058;-70
2021/04/18 03:52:44;;;;;;;10.52;5.53;;;;;;;5.07;73.97;100862.34;5017338;28;20050;-70
2021/04/18 03:55:11;;;;;;;11.45;5.93;;;;;;;5.05;73.68;100861.53;5017981;28;20065;-70
2021/04/18 03:57:37;;;;;;;9.25;4.97;;;;;;;5.09;73.95;100861.41;5018104;28;20053;-70
2021/04/18 04:00:05;;;;;;;14.18;5.38;;;;;;;5.00;74.16;100858.97;5017110;28;20578;-70
2021/04/18 04:02:31;;;;;;;12.20;6.10;;;;;;;4.99;74.06;100857.25;5017894;28;20061;-71
2021/04/18 04:04:58;;;;;;;16.05;5.78;;;;;;;5.05;74.53;100878.25;5016656;28;20045;-71
2021/04/18 04:07:24;;;;;;;17.48;5.43;;;;;;;5.07;74.22;100868.50;5016935;28;20077;-71
2021/04/18 04:09:50;;;;;;;12.55;5.85;;;;;;;5.12;74.00;100863.94;5016603;28;20053;-72
2021/04/18 04:12:16;;;;;;;10.93;5.40;;;;;;;5.18;73.96;100876.16;5016595;28;20054;-71
2021/04/18 04:14:43;;;;;;;15.35;5.68;;;;;;;5.13;74.05;100862.19;5017638;28;20139;-72
2021/04/18 04:17:09;;;;;;;13.82;5.80;;;;;;;5.10;74.12;100870.19;5017722;28;20104;-71
2021/04/18 04:19:36;;;;;;;12.90;5.40;;;;;;;5.06;73.97;100868.56;5017445;28;20060;-71
2021/04/18 04:22:02;;;;;;;16.10;5.85;;;;;;;4.87;75.03;100864.63;5015963;28;20050;-71
2021/04/18 04:24:29;;;;;;;12.35;5.97;;;;;;;4.97;75.04;100881.09;5017173;28;20390;-71
2021/04/18 04:26:56;;;;;;;12.02;5.63;;;;;;;4.99;74.74;100878.41;5017144;28;20447;-71
2021/04/18 04:29:22;;;;;;;12.48;5.60;;;;;;;4.96;74.35;100875.88;5032392;28;20444;-71
2021/04/18 04:31:48;;;;;;;14.82;5.85;;;;;;;4.97;74.50;100881.09;5016899;28;20442;-71
2021/04/18 04:34:14;;;;;;;13.85;6.07;;;;;;;4.83;75.12;100888.53;4999776;28;20132;-71
2021/04/18 04:36:40;;;;;;;14.93;6.18;;;;;;;4.82;75.48;100887.66;5017190;28;20061;-72
2021/04/18 04:39:06;;;;;;;12.10;5.57;;;;;;;4.83;75.10;100891.16;5016020;28;20061;-71
2021/04/18 04:41:33;;;;;;;12.90;5.57;;;;;;;4.85;75.04;100881.44;5017026;28;20050;-71
2021/04/18 04:43:59;;;;;;;12.57;6.43;;;;;;;4.85;74.67;100898.16;5017072;28;20317;-71
2021/04/18 04:46:26;;;;;;;16.25;6.60;;;;;;;4.99;74.50;100900.47;5016997;28;20050;-71
2021/04/18 04:48:52;;;;;;;16.45;6.25;;;;;;;4.84;74.82;100904.34;5016227;28;20050;-71
2021/04/18 04:51:18;;;;;;;10.18;5.70;;;;;;;4.71;75.33;100906.44;5016112;28;20431;-71
2021/04/18 04:53:45;;;;;;;11.82;5.75;;;;;;;4.66;75.79;100904.81;5017104;28;20057;-71
2021/04/18 04:56:11;;;;;;;12.55;5.78;;;;;;;4.64;76.02;100909.28;5016801;28;20050;-71
2021/04/18 04:58:37;;;;;;;16.05;6.35;;;;;;;4.65;76.17;100913.66;5016956;28;20054;-71
2021/04/18 05:01:03;;;;;;;12.75;6.25;;;;;;;4.62;76.21;100904.00;5017504;28;20049;-71
2021/04/18 05:03:29;;;;;;;10.80;5.85;;;;;;;4.51;76.72;100916.63;5016862;28;20400;-70
2021/04/18 05:05:56;;;;;;;23.48;7.15;;;;;;;4.48;76.24;100913.13;5017090;28;20064;-71
2021/04/18 05:08:22;;;;;;;16.02;6.32;;;;;;;4.40;76.67;100917.75;5017846;28;20431;-70
2021/04/18 05:10:49;;;;;;;15.38;5.97;;;;;;;4.37;76.97;100909.91;5017154;28;20054;-70
2021/04/18 05:13:15;;;;;;;14.88;6.47;;;;;;;4.32;77.55;100911.78;5015767;28;20060;-70
2021/04/18 05:15:41;;;;;;;16.00;6.50;;;;;;;4.34;77.31;100907.31;5015169;28;20120;-71
2021/04/18 05:18:08;;;;;;;17.30;6.30;;;;;;;4.19;77.99;100914.69;5016619;28;20054;-70
2021/04/18 05:20:34;;;;;;;11.50;5.82;;;;;;;4.24;77.97;100911.94;5015413;28;20062;-70
2021/04/18 05:23:00;;;;;;;12.30;6.60;;;;;;;4.19;78.41;100919.97;5015844;28;20448;-70
2021/04/18 05:25:26;;;;;;;13.25;6.25;;;;;;;4.18;78.61;100915.59;5016251;28;20058;-70
2021/04/18 05:27:53;;;;;;;16.60;7.28;;;;;;;4.21;78.29;100912.88;5016140;28;20061;-70
2021/04/18 05:30:19;;;;;;;16.98;6.68;;;;;;;4.22;78.26;100919.03;5015840;28;20054;-70
2021/04/18 05:32:45;;;;;;;15.70;6.85;;;;;;;4.21;78.35;100920.78;5015621;28;20053;-70
2021/04/18 05:35:12;;;;;;;16.83;7.55;;;;;;;4.19;78.51;100925.25;5015904;28;20073;-70
2021/04/18 05:37:38;;;;;;;13.82;6.78;;;;;;;4.15;78.54;100923.56;5014496;28;20050;-70
2021/04/18 05:40:07;;;;;;;16.23;6.60;;;;;;;4.12;78.78;100915.72;5015766;28;20049;-70
2021/04/18 05:42:33;;;;;;;12.57;6.78;;;;;;;4.07;78.50;100899.09;5015857;28;20053;-70
2021/04/18 05:45:00;;;;;;;14.68;7.07;;;;;;;4.12;78.94;100907.81;5015777;28;20053;-72
2021/04/18 05:47:27;;;;;;;14.20;7.53;;;;;;;4.06;79.26;100907.94;5015671;28;20344;-70
2021/04/18 05:49:54;;;;;;;13.23;6.88;;;;;;;4.00;79.63;100908.06;5015839;28;20501;-71
2021/04/18 05:52:20;;;;;;;14.88;7.30;;;;;;;3.84;80.56;100905.75;5015264;28;20056;-71
2021/04/18 05:54:47;;;;;;;14.65;7.35;;;;;;;3.87;80.77;100913.59;5015865;28;20362;-71
2021/04/18 05:57:13;;;;;;;19.25;9.40;;;;;;;3.85;80.39;100914.53;5015424;28;20362;-71
2021/04/18 05:59:39;;;;;;;20.13;7.75;;;;;;;3.84;80.92;100908.41;4998328;28;20050;-71
2021/04/18 06:02:05;;;;;;;18.13;7.65;;;;;;;3.83;81.28;100905.78;5014021;28;20057;-71
2021/04/18 06:04:32;;;;;;;17.30;7.72;;;;;;;3.84;81.05;100908.41;5014215;28;20053;-70
2021/04/18 06:06:59;;;;;;;18.63;9.05;;;;;;;3.86;81.70;100911.88;5007915;28;20050;-70
2021/04/18 06:09:25;;;;;;;16.90;8.38;;;;;;;3.93;81.52;100913.47;5006882;28;20057;-70
2021/04/18 06:11:51;;;;;;;14.02;7.72;;;;;;;3.89;81.45;100906.53;5006367;28;20050;-71
2021/04/18 06:14:18;;;;;;;18.67;7.28;;;;;;;3.85;81.49;100920.69;5004149;28;20104;-70
2021/04/18 06:16:44;;;;;;;15.27;7.72;;;;;;;3.86;81.54;100930.34;5014153;28;20399;-71
2021/04/18 06:19:10;;;;;;;19.05;8.30;;;;;;;3.89;81.96;100927.66;5003892;28;20057;-71
2021/04/18 06:21:36;;;;;;;17.58;7.78;;;;;;;3.92;81.82;100932.03;4995210;28;20047;-71
2021/04/18 06:24:04;;;;;;;20.25;8.77;;;;;;;3.99;81.65;100927.47;4998500;28;20050;-71
2021/04/18 06:26:30;;;;;;;14.40;7.50;;;;;;;4.05;80.84;100925.53;5013119;28;20049;-70
2021/04/18 06:28:57;;;;;;;21.13;9.55;;;;;;;4.08;80.88;100933.41;5013732;28;20442;-72
2021/04/18 06:31:23;;;;;;;18.50;8.07;;;;;;;4.20;80.66;100934.91;5014539;28;20088;-73
2021/04/18 06:33:50;;;;;;;18.35;8.85;;;;;;;4.26;80.83;100938.34;5014313;28;20324;-72
2021/04/18 06:36:16;;;;;;;16.02;7.20;;;;;;;4.24;80.58;100943.66;5014871;28;20132;-74
2021/04/18 06:38:42;;;;;;;16.33;7.95;;;;;;;4.29;80.55;100936.50;5014659;28;20041;-73
2021/04/18 06:41:21;;;;;;;17.52;8.30;;;;;;;4.30;80.50;100925.00;5011914;28;20054;-72
2021/04/18 06:43:48;;;;;;;17.77;8.00;;;;;;;4.44;80.37;100927.34;5012529;28;20054;-74
2021/04/18 06:46:20;;;;;;;17.05;8.80;;;;;;;4.54;80.14;100925.38;5014534;28;20443;-74
2021/04/18 06:48:48;;;;;;;14.38;7.55;;;;;;;4.73;79.23;100923.13;5012115;28;20049;-71
2021/04/18 06:51:16;;;;;;;14.98;8.40;;;;;;;4.74;79.31;100916.09;5014630;28;20053;-72
2021/04/18 06:53:43;;;;;;;20.38;9.00;;;;;;;4.77;78.87;100910.72;5014801;28;20046;-72
2021/04/18 06:56:09;;;;;;;14.38;7.72;;;;;;;4.74;78.97;100906.38;5014493;28;20050;-75
2021/04/18 06:58:35;;;;;;;17.48;7.47;;;;;;;4.86;78.40;100910.47;5013219;28;20375;-74
2021/04/18 07:01:01;;;;;;;21.83;7.95;;;;;;;4.83;78.66;100899.09;5013488;28;20581;-72
2021/04/18 07:03:28;;;;;;;18.88;8.38;;;;;;;4.76;79.18;100903.69;5013490;28;20329;-74
2021/04/18 07:05:58;;;;;;;18.15;8.18;;;;;;;4.96;78.92;100908.47;5014331;28;20073;-72
2021/04/18 07:08:33;;;;;;;20.17;8.47;;;;;;;5.11;78.60;100903.69;5012932;28;20490;-75
2021/04/18 07:11:20;;;;;;;18.40;9.27;;;;;;;5.24;78.45;100896.28;5014922;28;20054;-73
2021/04/18 07:13:48;;;;;;;18.55;8.10;;;;;;;5.08;79.04;100906.41;5015681;28;20132;-76
2021/04/18 07:16:32;;;;;;;15.35;8.55;;;;;;;5.11;78.95;100904.56;5011484;28;20046;-74
2021/04/18 07:18:58;;;;;;;18.25;9.27;;;;;;;4.96;79.52;100903.16;5014322;28;20104;-73
2021/04/18 07:21:50;;;;;;;16.00;8.90;;;;;;;5.00;79.44;100896.91;5014418;28;20080;-71
2021/04/18 07:24:17;;;;;;;14.93;8.85;;;;;;;5.14;79.41;100911.56;5035140;28;20054;-72
2021/04/18 07:26:52;;;;;;;15.50;7.80;;;;;;;5.25;78.57;100917.44;5014191;28;20046;-74
2021/04/18 07:29:20;;;;;;;15.18;8.65;;;;;;;5.37;78.75;100921.53;5016913;28;20065;-74
2021/04/18 07:31:49;;;;;;;15.40;8.77;;;;;;;5.35;78.19;100927.78;5015775;28;20050;-71
2021/04/18 07:34:20;;;;;;;26.20;9.77;;;;;;;5.28;78.34;100925.28;5015897;28;20119;-73
2021/04/18 07:36:48;;;;;;;16.98;8.82;;;;;;;5.28;78.05;100921.75;5014845;28;20054;-73
2021/04/18 07:39:16;;;;;;;19.48;8.43;;;;;;;5.34;78.70;100918.94;5016026;28;20058;-73
2021/04/18 07:41:48;;;;;;;23.20;9.98;;;;;;;5.40;78.64;100915.28;5017608;28;20427;-74
2021/04/18 07:44:17;;;;;;;20.23;9.85;;;;;;;5.49;78.31;100925.63;5017430;28;20056;-72
2021/04/18 07:46:52;;;;;;;24.27;9.20;;;;;;;5.62;77.99;100925.28;5016903;28;20102;-74
2021/04/18 07:49:19;;;;;;;21.67;9.77;;;;;;;5.73;77.75;100922.31;5016953;28;20072;-74
2021/04/18 07:51:48;;;;;;;20.65;9.27;;;;;;;5.90;76.66;100911.22;5015882;28;20427;-73
2021/04/18 07:54:17;;;;;;;17.80;8.52;;;;;;;6.00;76.42;100910.06;5017310;28;20136;-73
2021/04/18 07:56:47;;;;;;;19.25;9.18;;;;;;;6.10;75.69;100916.84;5017051;28;20486;-74
2021/04/18 07:59:17;;;;;;;20.02;9.25;;;;;;;6.17;75.15;100896.34;5017063;28;20050;-73
2021/04/18 08:01:44;;;;;;;14.83;9.10;;;;;;;6.41;75.08;100900.88;5017158;28;20450;-74
2021/04/18 08:04:12;;;;;;;21.70;8.95;;;;;;;6.35;75.03;100900.19;5017473;28;20053;-72
2021/04/18 08:06:42;;;;;;;23.27;9.05;;;;;;;6.16;75.23;100872.50;5017075;28;20454;-69
2021/04/18 08:09:20;;;;;;;20.80;8.80;;;;;;;6.29;75.38;100900.38;5024169;28;20062;-74
2021/04/18 08:12:05;;;;;;;23.88;9.35;;;;;;;6.48;75.42;100899.81;5014537;28;20056;-72
2021/04/18 08:14:35;;;;;;;22.38;8.90;;;;;;;6.60;74.39;100907.34;5017034;28;20046;-75
2021/04/18 08:17:12;;;;;;;16.48;9.73;;;;;;;6.70;74.83;100907.06;5016833;28;20060;-74
2021/04/18 08:19:58;;;;;;;24.20;8.75;;;;;;;6.58;74.69;100893.28;5014290;28;20366;-72
2021/04/18 08:23:11;;;;;;;18.50;8.68;;;;;;;6.58;74.81;100901.22;5016303;28;20084;-72
2021/04/18 08:26:00;;;;;;;22.75;9.15;;;;;;;6.82;74.19;100903.13;5016817;28;20049;-75
2021/04/18 08:28:27;;;;;;;19.25;8.48;;;;;;;6.98;73.51;100890.22;5016908;28;20062;-71
2021/04/18 08:31:07;;;;;;;16.13;9.30;;;;;;;7.01;72.74;100898.06;5016137;28;20049;-71
2021/04/18 08:33:38;;;;;;;18.52;8.52;;;;;;;7.22;72.78;100888.47;5014914;28;20137;-70
2021/04/18 08:36:20;;;;;;;20.40;8.52;;;;;;;7.27;71.73;100889.19;5015886;28;20050;-67
2021/04/18 08:39:05;;;;;;;22.45;8.30;;;;;;;7.31;72.03;100879.34;5015903;28;20053;-70
2021/04/18 08:41:43;;;;;;;20.17;8.18;;;;;;;7.56;71.16;100897.91;5014897;28;20076;-72
2021/04/18 08:44:14;;;;;;;17.83;7.80;;;;;;;7.58;70.39;100898.69;5017069;28;20054;-75
2021/04/18 08:46:41;;;;;;;21.30;8.90;;;;;;;7.88;70.15;100902.94;5016837;28;20107;-71
2021/04/18 08:49:09;;;;;;;20.42;8.68;;;;;;;7.87;69.54;100896.78;5016729;28;20054;-70
2021/04/18 08:51:39;;;;;;;15.35;7.50;;;;;;;8.00;68.94;100902.47;5015088;28;20046;-73
2021/04/18 08:54:06;;;;;;;18.98;7.85;;;;;;;7.98;69.01;100906.09;5016117;28;20100;-70
2021/04/18 08:56:50;;;;;;;15.73;7.93;;;;;;;8.09;69.18;100903.03;5016714;28;20053;-71
2021/04/18 08:59:19;;;;;;;14.25;8.02;;;;;;;8.24;68.76;100901.59;5016750;28;20065;-71
2021/04/18 09:01:53;;;;;;;21.15;8.65;;;;;;;8.42;68.17;100905.28;5016923;28;20050;-70
2021/04/18 09:04:21;;;;;;;18.52;7.80;;;;;;;8.60;67.03;100902.88;5015707;28;20116;-70
2021/04/18 09:06:48;;;;;;;17.25;8.07;;;;;;;8.69;66.37;100914.00;5015934;28;20112;-71
2021/04/18 09:09:16;;;;;;;18.85;7.40;;;;;;;8.68;65.23;100906.06;5016312;28;20432;-71
2021/04/18 09:11:46;;;;;;;16.75;7.30;;;;;;;8.81;65.38;100903.75;5016113;28;20052;-71
2021/04/18 09:14:18;;;;;;;14.90;6.75;;;;;;;8.97;64.73;100901.31;5015988;28;20050;-71
2021/04/18 09:16:44;;;;;;;16.00;7.15;;;;;;;8.96;64.46;100902.25;5015341;28;20347;-72
2021/04/18 09:19:30;;;;;;;16.60;7.30;;;;;;;8.92;65.00;100913.94;5016402;28;20049;-71
2021/04/18 09:22:04;;;;;;;13.48;6.53;;;;;;;9.03;63.54;100914.38;5016346;28;20447;-70
2021/04/18 09:24:32;;;;;;;15.90;6.00;;;;;;;8.94;63.23;100922.75;5016086;28;20416;-71
2021/04/18 09:27:11;;;;;;;14.70;6.72;;;;;;;8.91;63.32;100921.09;5016064;28;20054;-72
2021/04/18 09:29:43;;;;;;;16.38;6.30;;;;;;;8.96;63.53;100921.78;5016070;28;20054;-72
2021/04/18 09:32:12;;;;;;;14.85;7.25;;;;;;;8.89;64.71;100914.09;5015813;28;20053;-71
2021/04/18 09:34:40;;;;;;;17.40;6.82;;;;;;;9.02;63.77;100917.09;5015039;28;20054;-71
2021/04/18 09:37:11;;;;;;;19.90;6.82;;;;;;;9.10;62.36;100897.19;5016123;28;20050;-72
2021/04/18 09:39:39;;;;;;;13.50;6.57;;;;;;;9.35;61.66;100896.13;5015878;28;20072;-71
2021/04/18 09:42:07;;;;;;;16.30;6.28;;;;;;;9.43;60.17;100886.94;5015610;28;20343;-71
2021/04/18 09:44:40;;;;;;;14.73;5.47;;;;;;;9.55;59.82;100886.41;5015624;28;20069;-71
2021/04/18 09:47:16;;;;;;;18.80;6.18;;;;;;;9.60;60.75;100900.34;5015702;28;20060;-72
2021/04/18 09:49:53;;;;;;;15.23;6.00;;;;;;;9.61;60.11;100901.22;5014977;28;20363;-72
2021/04/18 09:52:39;;;;;;;17.38;6.93;;;;;;;9.58;59.40;100896.91;5015889;28;20050;-72
2021/04/18 09:55:27;;;;;;;12.73;5.45;;;;;;;9.61;58.74;100890.56;5015566;28;20053;-71
2021/04/18 09:57:58;;;;;;;9.60;4.90;;;;;;;9.70;58.39;100883.97;5015480;28;20423;-71
2021/04/18 10:00:30;;;;;;;10.80;4.88;;;;;;;9.83;56.93;100895.78;5015593;28;20131;-71
2021/04/18 10:03:03;;;;;;;11.13;5.00;;;;;;;10.12;56.73;100888.22;5014987;28;20046;-71
2021/04/18 10:05:32;;;;;;;11.35;4.50;;;;;;;10.39;55.41;100892.28;5015530;28;20096;-71
2021/04/18 10:08:24;;;;;;;13.80;4.43;;;;;;;10.51;53.72;100870.38;5014875;28;20108;-70
2021/04/18 10:10:55;;;;;;;7.97;4.05;;;;;;;10.64;52.67;100889.34;5015818;28;20053;-72
2021/04/18 10:13:37;;;;;;;11.52;5.13;;;;;;;10.77;53.63;100886.03;5015481;28;20371;-73
2021/04/18 10:16:21;;;;;;;16.10;6.80;;;;;;;10.93;51.59;100892.34;5015582;28;20049;-72
2021/04/18 10:19:14;;;;;;;10.55;4.30;;;;;;;10.98;51.00;100890.31;5015291;28;20474;-70
2021/04/18 10:21:43;;;;;;;10.25;4.80;;;;;;;11.16;51.14;100879.59;5015350;28;20132;-71
2021/04/18 10:24:33;;;;;;;19.25;4.35;;;;;;;11.39;49.82;100878.41;5015685;28;20058;-71
2021/04/18 10:27:04;;;;;;;;;;;;;;;11.39;49.29;100866.88;5015885;28;20100;-72
2021/04/18 10:29:30;;;;;;;8.18;3.60;;;;;;;11.48;49.94;100861.00;5015550;28;19929;-71
2021/04/18 10:31:57;;;;;;;10.07;3.85;;;;;;;11.67;47.10;100868.06;5015385;28;20172;-72
2021/04/18 10:34:23;;;;;;;9.43;3.67;;;;;;;11.71;47.13;100860.72;5015209;28;20542;-72
2021/04/18 10:36:50;;;;;;;7.05;4.00;;;;;;;11.92;46.58;100869.34;5013978;28;20436;-72
2021/04/18 10:39:16;;;;;;;8.93;3.42;;;;;;;11.89;46.66;100869.53;5015075;28;20104;-72
2021/04/18 10:41:43;;;;;;;9.05;3.60;;;;;;;11.84;45.02;100855.53;5014090;28;20050;-71
2021/04/18 10:44:15;;;;;;;9.38;3.80;;;;;;;11.58;45.26;100849.81;5014469;28;20050;-70
2021/04/18 10:47:03;;;;;;;7.47;3.38;;;;;;;11.50;46.49;100842.22;5015191;28;20058;-72
2021/04/18 10:49:30;;;;;;;8.60;3.72;;;;;;;11.49;46.24;100829.81;5015266;28;20042;-71
2021/04/18 10:51:57;;;;;;;7.00;3.90;;;;;;;11.60;46.36;100853.28;5014927;28;20428;-71
2021/04/18 10:54:24;;;;;;;10.07;4.28;;;;;;;11.78;46.26;100841.56;5015383;28;20100;-71
2021/04/18 10:56:52;;;;;;;9.93;3.40;;;;;;;12.13;46.00;100842.38;5015005;28;20060;-71
2021/04/18 10:59:22;;;;;;;11.00;3.42;;;;;;;12.54;45.16;100836.47;5015338;28;20053;-72
2021/04/18 11:01:49;;;;;;;10.95;3.50;;;;;;;12.93;44.61;100838.69;5015245;28;20389;-72
2021/04/18 11:04:16;;;;;;;10.40;4.50;;;;;;;13.24;43.37;100828.78;5001730;28;20053;-72
2021/04/18 11:06:42;;;;;;;15.73;3.83;;;;;;;13.57;43.11;100827.69;5018712;28;20049;-71
2021/04/18 11:09:09;;;;;;;7.90;3.78;;;;;;;13.85;42.77;100817.88;5018818;28;20061;-71
2021/04/18 11:11:36;;;;;;;16.45;5.57;;;;;;;13.92;44.27;100800.41;5034080;28;20104;-74
2021/04/18 11:14:03;;;;;;;10.77;4.30;;;;;;;13.66;42.17;100815.47;5018999;28;20058;-70
2021/04/18 11:16:29;;;;;;;10.48;3.95;;;;;;;13.27;43.65;100804.47;5017806;28;20057;-71
2021/04/18 11:18:56;;;;;;;8.57;4.30;;;;;;;13.09;42.62;100819.84;5018628;28;20333;-72
2021/04/18 11:21:23;;;;;;;8.82;4.28;;;;;;;13.17;42.40;100822.94;5018503;28;20107;-72
2021/04/18 11:23:51;;;;;;;11.38;4.43;;;;;;;13.14;42.48;100813.25;5001495;28;20136;-71
2021/04/18 11:26:17;;;;;;;10.75;4.10;;;;;;;13.63;42.64;100804.97;5017657;28;20104;-72
2021/04/18 11:28:43;;;;;;;8.10;4.03;;;;;;;13.90;42.71;100818.41;5018732;28;20060;-71
2021/04/18 11:31:09;;;;;;;7.20;3.55;;;;;;;13.96;42.19;100801.91;5019030;28;20394;-71
2021/04/18 11:33:36;;;;;;;9.20;4.35;;;;;;;13.83;41.27;100811.72;5018466;28;20046;-71